createdAt,value
2022-12-17T00:01:43.743Z,1.85
2022-12-17T00:04:34.572Z,1.60
2022-12-17T00:07:20.695Z,2.05
2022-12-17T00:10:06.119Z,1.83
2022-12-17T00:12:52.883Z,2.10
2022-12-17T00:15:38.193Z,2.30
2022-12-17T00:18:24.932Z,2.55
2022-12-17T00:21:12.001Z,2.25
2022-12-17T00:23:57.192Z,2.10
2022-12-17T00:26:42.739Z,2.58
2022-12-17T00:29:29.511Z,2.60
2022-12-17T00:32:11.367Z,2.35
2022-12-17T00:34:57.254Z,2.45
2022-12-17T00:37:42.686Z,2.35
2022-12-17T00:40:28.634Z,2.03
2022-12-17T00:43:20.159Z,2.45
2022-12-17T00:46:07.319Z,2.08
2022-12-17T00:48:52.763Z,2.40
2022-12-17T00:51:39.206Z,2.03
2022-12-17T00:54:25.302Z,2.05
2022-12-17T00:57:10.899Z,2.55
2022-12-17T00:59:56.478Z,2.42
2022-12-17T01:02:44.116Z,2.67
2022-12-17T01:05:30.315Z,1.98
2022-12-17T01:08:16.368Z,2.42
2022-12-17T01:11:01.901Z,2.33
2022-12-17T01:13:47.416Z,2.58
2022-12-17T01:16:33.277Z,2.55
2022-12-17T01:19:20.418Z,2.00
2022-12-17T01:22:05.972Z,2.53
2022-12-17T01:24:51.532Z,2.38
2022-12-17T01:27:37.491Z,2.67
2022-12-17T01:30:29.315Z,2.67
2022-12-17T01:33:20.050Z,2.60
2022-12-17T01:36:07.066Z,2.97
2022-12-17T01:38:52.607Z,2.17
2022-12-17T01:41:38.564Z,3.30
2022-12-17T01:44:57.526Z,2.40
2022-12-17T01:47:43.919Z,2.78
2022-12-17T01:50:29.780Z,3.03
2022-12-17T01:53:21.793Z,2.42
2022-12-17T01:56:07.927Z,2.72
2022-12-17T01:58:54.261Z,2.90
2022-12-17T02:01:40.541Z,2.45
2022-12-17T02:04:27.691Z,2.50
2022-12-17T02:07:25.462Z,1.80
2022-12-17T02:10:20.427Z,2.97
2022-12-17T02:13:17.336Z,2.90
2022-12-17T02:16:08.893Z,2.03
2022-12-17T02:19:06.891Z,1.63
2022-12-17T02:21:55.215Z,1.92
2022-12-17T02:24:50.362Z,1.77
2022-12-17T02:27:37.792Z,2.10
2022-12-17T02:30:25.568Z,1.70
2022-12-17T02:33:12.169Z,2.50
2022-12-17T02:36:01.876Z,2.72
2022-12-17T02:38:45.258Z,3.05
2022-12-17T02:41:34.104Z,2.40
2022-12-17T02:44:21.869Z,2.45
2022-12-17T02:47:08.740Z,2.30
2022-12-17T02:49:54.230Z,2.80
2022-12-17T02:52:40.713Z,2.47
2022-12-17T02:55:27.026Z,2.20
2022-12-17T02:58:12.642Z,2.63
2022-12-17T03:00:59.494Z,2.50
2022-12-17T03:03:49.985Z,2.25
2022-12-17T03:06:35.805Z,2.45
2022-12-17T03:09:21.396Z,2.05
2022-12-17T03:12:06.909Z,2.05
2022-12-17T03:14:52.378Z,2.40
2022-12-17T03:17:38.522Z,2.58
2022-12-17T03:20:24.865Z,2.08
2022-12-17T03:23:10.490Z,2.00
2022-12-17T03:25:55.951Z,2.20
2022-12-17T03:28:41.401Z,2.25
2022-12-17T03:31:27.162Z,1.67
2022-12-17T03:34:13.963Z,2.72
2022-12-17T03:36:59.491Z,2.47
2022-12-17T03:39:56.610Z,2.10
2022-12-17T03:42:42.145Z,1.35
2022-12-17T03:45:28.589Z,1.63
2022-12-17T03:48:23.634Z,1.88
2022-12-17T03:51:11.441Z,1.55
2022-12-17T03:53:57.613Z,1.75
2022-12-17T03:56:43.311Z,2.03
2022-12-17T03:59:29.582Z,1.95
2022-12-17T04:02:15.211Z,1.80
2022-12-17T04:05:00.610Z,1.80
2022-12-17T04:07:47.541Z,2.17
2022-12-17T04:10:33.084Z,1.95
2022-12-17T04:13:18.401Z,2.28
2022-12-17T04:16:03.870Z,2.22
2022-12-17T04:18:49.317Z,2.58
2022-12-17T04:21:34.676Z,2.60
2022-12-17T04:24:29.825Z,1.90
2022-12-17T04:27:15.400Z,2.85
2022-12-17T04:30:00.884Z,2.15
2022-12-17T04:32:46.344Z,2.92
2022-12-17T04:35:31.926Z,1.75
2022-12-17T04:38:17.271Z,1.60
2022-12-17T04:41:04.229Z,3.53
2022-12-17T04:43:49.749Z,1.85
2022-12-17T04:46:35.270Z,2.03
2022-12-17T04:49:20.986Z,2.00
2022-12-17T04:52:06.323Z,1.85
2022-12-17T04:54:51.856Z,2.38
2022-12-17T04:57:38.728Z,2.30
2022-12-17T05:00:25.081Z,2.38
2022-12-17T05:03:10.525Z,2.03
2022-12-17T05:05:56.048Z,2.33
2022-12-17T05:08:41.797Z,2.10
2022-12-17T05:11:27.104Z,1.90
2022-12-17T05:14:16.033Z,1.50
2022-12-17T05:17:01.381Z,2.05
2022-12-17T05:19:46.872Z,2.33
2022-12-17T05:22:46.883Z,2.20
2022-12-17T05:25:32.638Z,1.75
2022-12-17T05:28:18.187Z,3.00
2022-12-17T05:31:11.564Z,1.60
2022-12-17T05:33:56.779Z,1.83
2022-12-17T05:36:41.897Z,1.85
2022-12-17T05:39:27.387Z,1.42
2022-12-17T05:42:12.958Z,2.00
2022-12-17T05:44:58.587Z,1.90
2022-12-17T05:47:45.227Z,2.50
2022-12-17T05:50:31.017Z,2.08
2022-12-17T05:53:20.436Z,2.22
2022-12-17T05:56:07.949Z,2.00
2022-12-17T05:58:53.593Z,1.90
2022-12-17T06:01:39.074Z,1.20
2022-12-17T06:04:26.041Z,1.70
2022-12-17T06:07:11.525Z,1.70
2022-12-17T06:09:57.674Z,1.52
2022-12-17T06:12:42.931Z,2.25
2022-12-17T06:15:28.881Z,1.63
2022-12-17T06:18:17.143Z,1.35
2022-12-17T06:21:04.730Z,1.55
2022-12-17T06:23:50.260Z,1.50
2022-12-17T06:26:35.727Z,1.40
2022-12-17T06:29:21.241Z,1.58
2022-12-17T06:32:06.767Z,1.58
2022-12-17T06:34:52.273Z,1.83
2022-12-17T06:37:39.000Z,1.70
2022-12-17T06:40:25.380Z,1.50
2022-12-17T06:43:11.857Z,1.20
2022-12-17T06:45:57.248Z,1.63
2022-12-17T06:48:42.612Z,1.60
2022-12-17T06:51:28.176Z,1.48
2022-12-17T06:54:14.846Z,1.52
2022-12-17T06:57:00.459Z,1.13
2022-12-17T06:59:46.854Z,1.40
2022-12-17T07:02:32.592Z,1.38
2022-12-17T07:05:18.291Z,1.92
2022-12-17T07:08:03.900Z,1.40
2022-12-17T07:10:50.553Z,2.10
2022-12-17T07:13:36.730Z,1.25
2022-12-17T07:16:21.762Z,1.63
2022-12-17T07:19:07.115Z,2.15
2022-12-17T07:21:52.776Z,1.52
2022-12-17T07:24:38.253Z,1.35
2022-12-17T07:27:25.166Z,2.03
2022-12-17T07:30:10.622Z,1.63
2022-12-17T07:32:55.910Z,1.10
2022-12-17T07:35:41.538Z,1.40
2022-12-17T07:38:28.927Z,1.60
2022-12-17T07:41:14.528Z,1.48
2022-12-17T07:44:01.433Z,1.80
2022-12-17T07:46:46.945Z,1.90
2022-12-17T07:49:32.500Z,1.85
2022-12-17T07:52:18.063Z,1.30
2022-12-17T07:55:03.515Z,1.40
2022-12-17T07:57:48.931Z,1.50
2022-12-17T08:00:35.868Z,1.63
2022-12-17T08:03:21.312Z,1.40
2022-12-17T08:06:06.946Z,1.80
2022-12-17T08:08:52.862Z,1.30
2022-12-17T08:11:38.346Z,1.38
2022-12-17T08:14:23.785Z,1.70
2022-12-17T08:17:10.624Z,1.42
2022-12-17T08:19:56.208Z,1.50
2022-12-17T08:22:41.679Z,1.45
2022-12-17T08:25:27.583Z,1.95
2022-12-17T08:28:41.257Z,2.40
2022-12-17T08:31:20.325Z,1.85
2022-12-17T08:34:08.182Z,1.95
2022-12-17T08:36:54.086Z,2.20
2022-12-17T08:39:39.490Z,2.78
2022-12-17T08:42:25.011Z,2.05
2022-12-17T08:45:10.511Z,2.65
2022-12-17T08:47:59.068Z,2.90
2022-12-17T08:50:45.271Z,2.45
2022-12-17T08:53:34.701Z,2.65
2022-12-17T08:56:20.568Z,2.30
2022-12-17T08:59:06.197Z,3.05
2022-12-17T09:01:51.813Z,2.47
2022-12-17T09:04:37.091Z,3.45
2022-12-17T09:07:23.922Z,3.88
2022-12-17T09:10:09.246Z,3.80
2022-12-17T09:12:56.662Z,4.07
2022-12-17T09:15:45.151Z,3.33
2022-12-17T09:18:30.699Z,3.10
2022-12-17T09:21:16.256Z,3.40
2022-12-17T09:24:03.136Z,3.40
2022-12-17T09:26:48.480Z,3.15
2022-12-17T09:29:34.102Z,3.85
2022-12-17T09:32:19.728Z,3.25
2022-12-17T09:35:05.096Z,3.00
2022-12-17T09:37:50.716Z,4.10
2022-12-17T09:40:41.437Z,3.05
2022-12-17T09:43:40.906Z,2.80
2022-12-17T09:46:36.281Z,3.95
2022-12-17T09:49:28.002Z,4.10
2022-12-17T09:52:13.499Z,3.75
2022-12-17T09:55:02.541Z,4.50
2022-12-17T09:57:52.085Z,4.47
2022-12-17T10:00:39.555Z,3.85
2022-12-17T10:03:31.059Z,3.70
2022-12-17T10:06:22.972Z,3.90
2022-12-17T10:09:14.687Z,5.15
2022-12-17T10:12:00.044Z,4.88
2022-12-17T10:14:46.819Z,4.28
2022-12-17T10:17:35.144Z,5.03
2022-12-17T10:20:21.177Z,3.30
2022-12-17T10:23:13.583Z,3.42
2022-12-17T10:26:09.165Z,3.57
2022-12-17T10:28:54.722Z,3.43
2022-12-17T10:31:47.207Z,4.40
2022-12-17T10:34:36.317Z,4.37
2022-12-17T10:37:21.746Z,4.40
2022-12-17T10:40:14.153Z,5.10
2022-12-17T10:42:59.698Z,7.00
2022-12-17T10:45:46.643Z,5.03
2022-12-17T10:48:43.062Z,7.23
2022-12-17T10:51:38.567Z,5.23
2022-12-17T10:54:29.077Z,5.70
2022-12-17T10:57:18.089Z,5.80
2022-12-17T11:00:03.825Z,5.70
2022-12-17T11:02:50.350Z,7.40
2022-12-17T11:05:43.787Z,6.67
2022-12-17T11:08:40.715Z,4.83
2022-12-17T11:11:30.106Z,6.27
2022-12-17T11:14:19.595Z,6.33
2022-12-17T11:17:11.143Z,7.20
2022-12-17T11:20:03.700Z,6.57
2022-12-17T11:22:57.452Z,6.23
2022-12-17T11:25:51.114Z,5.60
2022-12-17T11:28:41.077Z,6.97
2022-12-17T11:31:50.409Z,5.90
2022-12-17T11:34:49.483Z,5.43
2022-12-17T11:37:39.109Z,8.00
2022-12-17T11:40:38.334Z,6.10
2022-12-17T11:43:33.656Z,6.00
2022-12-17T11:46:28.293Z,7.10
2022-12-17T11:49:23.783Z,6.80
2022-12-17T11:52:17.572Z,6.77
2022-12-17T11:55:11.146Z,5.57
2022-12-17T11:58:08.108Z,6.23
2022-12-17T12:01:00.029Z,5.10
2022-12-17T12:04:03.582Z,6.97
2022-12-17T12:06:56.972Z,7.40
2022-12-17T12:09:51.500Z,6.60
2022-12-17T12:12:43.986Z,6.27
2022-12-17T12:15:41.802Z,6.47
2022-12-17T12:18:34.036Z,5.40
2022-12-17T12:21:34.437Z,5.17
2022-12-17T12:24:33.743Z,5.70
2022-12-17T12:27:27.915Z,5.00
2022-12-17T12:30:22.324Z,5.83
2022-12-17T12:33:17.072Z,6.93
2022-12-17T12:36:02.923Z,6.17
2022-12-17T12:38:52.879Z,5.60
2022-12-17T12:41:43.088Z,5.47
2022-12-17T12:44:40.586Z,5.93
2022-12-17T12:47:31.597Z,5.10
2022-12-17T12:50:24.243Z,6.63
2022-12-17T12:53:09.579Z,5.90
2022-12-17T12:55:57.415Z,5.63
2022-12-17T12:58:45.915Z,6.00
2022-12-17T13:01:32.029Z,6.00
2022-12-17T13:04:20.201Z,8.03
2022-12-17T13:06:54.059Z,6.20
2022-12-17T13:09:35.418Z,5.63
2022-12-17T13:12:33.582Z,6.20
2022-12-17T13:15:26.847Z,5.97
2022-12-17T13:18:04.790Z,5.50
2022-12-17T13:20:35.484Z,5.43
2022-12-17T13:23:17.539Z,5.70
2022-12-17T13:25:45.705Z,6.50
2022-12-17T13:28:28.481Z,6.23
2022-12-17T13:31:04.169Z,5.30
2022-12-17T13:33:41.344Z,5.70
2022-12-17T13:36:17.706Z,5.90
2022-12-17T13:38:57.605Z,5.17
2022-12-17T13:41:31.115Z,5.67
2022-12-17T13:44:02.509Z,5.80
2022-12-17T13:46:36.224Z,4.97
2022-12-17T13:49:07.284Z,5.73
2022-12-17T13:51:36.340Z,6.40
2022-12-17T13:54:06.025Z,6.87
2022-12-17T13:56:37.639Z,5.70
2022-12-17T13:59:09.523Z,5.70
2022-12-17T14:01:46.670Z,5.67
2022-12-17T14:04:22.531Z,6.40
2022-12-17T14:06:51.610Z,4.90
2022-12-17T14:09:23.544Z,5.30
2022-12-17T14:12:09.414Z,5.03
2022-12-17T14:14:39.678Z,3.93
2022-12-17T14:17:08.477Z,4.20
2022-12-17T14:19:37.850Z,5.00
2022-12-17T14:22:06.290Z,4.50
2022-12-17T14:24:35.686Z,4.20
2022-12-17T14:27:03.573Z,4.43
2022-12-17T14:29:32.737Z,4.10
2022-12-17T14:32:02.716Z,5.97
2022-12-17T14:34:41.400Z,4.87
2022-12-17T14:37:18.128Z,3.70
2022-12-17T14:39:48.820Z,4.43
2022-12-17T14:42:29.531Z,5.03
2022-12-17T14:45:00.257Z,5.00
2022-12-17T14:47:30.307Z,4.70
2022-12-17T14:50:05.765Z,4.43
2022-12-17T14:52:43.216Z,4.50
2022-12-17T14:55:28.227Z,5.03
2022-12-17T14:58:16.151Z,4.40
2022-12-17T15:00:46.819Z,5.33
2022-12-17T15:03:23.063Z,4.23
2022-12-17T15:05:55.799Z,4.27
2022-12-17T15:08:23.983Z,4.53
2022-12-17T15:10:53.334Z,4.20
2022-12-17T15:13:21.213Z,4.47
2022-12-17T15:15:49.154Z,5.60
2022-12-17T15:18:17.048Z,5.23
2022-12-17T15:24:32.643Z,5.17
2022-12-17T15:27:01.953Z,4.50
2022-12-17T15:29:31.850Z,4.70
2022-12-17T15:31:59.744Z,5.57
2022-12-17T15:34:27.723Z,5.53
2022-12-17T15:36:55.668Z,5.40
2022-12-17T15:39:23.533Z,4.60
2022-12-17T15:42:09.182Z,5.27
2022-12-17T15:44:38.381Z,5.00
2022-12-17T15:47:06.295Z,5.57
2022-12-17T15:49:34.129Z,6.15
2022-12-17T15:52:02.037Z,5.13
2022-12-17T15:54:29.952Z,6.68
2022-12-17T15:56:58.188Z,4.63
2022-12-17T15:59:26.067Z,6.25
2022-12-17T16:01:55.385Z,6.95
2022-12-17T16:04:25.404Z,5.78
2022-12-17T16:06:53.834Z,5.30
2022-12-17T16:09:24.383Z,4.40
2022-12-17T16:11:54.374Z,5.87
2022-12-17T16:14:22.305Z,5.72
2022-12-17T16:16:50.330Z,5.70
2022-12-17T16:19:19.568Z,5.55
2022-12-17T16:21:47.599Z,5.40
2022-12-17T16:24:15.455Z,5.18
2022-12-17T16:26:43.312Z,5.63
2022-12-17T16:29:11.203Z,5.72
2022-12-17T16:31:39.278Z,4.63
2022-12-17T16:34:09.496Z,5.13
2022-12-17T16:36:38.976Z,5.25
2022-12-17T16:39:07.079Z,4.35
2022-12-17T16:41:35.259Z,4.68
2022-12-17T16:44:03.336Z,4.18
2022-12-17T16:46:33.568Z,5.35
2022-12-17T16:49:06.261Z,5.45
2022-12-17T16:51:34.706Z,4.35
2022-12-17T16:54:09.078Z,5.90
2022-12-17T16:56:40.409Z,5.15
2022-12-17T16:59:09.249Z,5.30
2022-12-17T17:01:37.977Z,5.82
2022-12-17T17:04:06.967Z,6.95
2022-12-17T17:06:39.672Z,5.50
2022-12-17T17:09:09.493Z,5.07
2022-12-17T17:11:37.397Z,5.35
2022-12-17T17:14:06.586Z,5.18
2022-12-17T17:16:35.179Z,5.28
2022-12-17T17:19:04.102Z,5.38
2022-12-17T17:21:34.200Z,6.47
2022-12-17T17:24:03.494Z,4.95
2022-12-17T17:26:34.676Z,4.40
2022-12-17T17:29:03.504Z,5.35
2022-12-17T17:32:09.046Z,4.82
2022-12-17T17:34:19.448Z,5.00
2022-12-17T17:36:47.347Z,4.95
2022-12-17T17:39:15.189Z,5.22
2022-12-17T17:41:44.384Z,5.95
2022-12-17T17:44:14.136Z,5.55
2022-12-17T17:46:42.626Z,5.43
2022-12-17T17:49:12.131Z,6.07
2022-12-17T17:54:30.792Z,6.20
2022-12-17T17:57:00.217Z,4.65
2022-12-17T17:59:33.273Z,5.28
2022-12-17T18:02:02.676Z,5.78
2022-12-17T18:04:31.140Z,4.68
2022-12-17T18:09:46.886Z,5.55
2022-12-17T18:12:33.670Z,5.00
2022-12-17T18:15:18.335Z,6.00
2022-12-17T18:17:48.277Z,5.95
2022-12-17T18:20:17.017Z,5.30
2022-12-17T18:22:46.296Z,5.10
2022-12-17T18:25:14.660Z,5.30
2022-12-17T18:27:44.011Z,5.80
2022-12-17T18:30:12.745Z,4.85
2022-12-17T18:32:40.685Z,5.13
2022-12-17T18:35:09.565Z,4.50
2022-12-17T18:37:37.898Z,4.65
2022-12-17T18:40:07.295Z,5.53
2022-12-17T18:42:55.279Z,4.50
2022-12-17T18:45:24.632Z,6.60
2022-12-17T18:47:52.504Z,5.65
2022-12-17T18:50:20.466Z,6.47
2022-12-17T18:52:48.520Z,5.88
2022-12-17T18:55:16.882Z,7.70
2022-12-17T18:57:44.740Z,5.68
2022-12-17T19:00:14.065Z,5.85
2022-12-17T19:02:44.273Z,5.03
2022-12-17T19:05:12.483Z,3.85
2022-12-17T19:07:40.337Z,6.03
2022-12-17T19:10:09.020Z,4.97
2022-12-17T19:12:36.888Z,5.28
2022-12-17T19:15:05.188Z,5.10
2022-12-17T19:17:33.036Z,4.90
2022-12-17T19:20:02.231Z,6.05
2022-12-17T19:22:30.066Z,5.90
2022-12-17T19:24:57.909Z,4.85
2022-12-17T19:27:25.777Z,5.15
2022-12-17T19:29:54.908Z,7.88
2022-12-17T19:32:23.534Z,7.90
2022-12-17T19:34:51.614Z,6.63
2022-12-17T19:37:20.812Z,6.75
2022-12-17T19:39:48.752Z,6.85
2022-12-17T19:42:25.331Z,7.43
2022-12-17T19:44:53.913Z,6.00
2022-12-17T19:47:22.730Z,6.60
2022-12-17T19:49:50.708Z,6.35
2022-12-17T19:52:19.937Z,5.85
2022-12-17T19:54:47.850Z,6.47
2022-12-17T19:57:15.685Z,6.25
2022-12-17T19:59:43.529Z,7.20
2022-12-17T20:02:11.554Z,4.95
2022-12-17T20:04:39.531Z,5.95
2022-12-17T20:07:07.401Z,6.70
2022-12-17T20:09:36.603Z,5.80
2022-12-17T20:12:04.747Z,5.65
2022-12-17T20:14:34.230Z,6.10
2022-12-17T20:17:02.664Z,5.13
2022-12-17T20:19:32.312Z,6.00
2022-12-17T20:22:02.154Z,5.00
2022-12-17T20:24:31.860Z,5.13
2022-12-17T20:27:01.747Z,4.93
2022-12-17T20:29:29.942Z,7.68
2022-12-17T20:32:01.812Z,6.40
2022-12-17T20:34:29.854Z,5.45
2022-12-17T20:36:57.684Z,7.45
2022-12-17T20:39:28.264Z,6.32
2022-12-17T20:41:57.258Z,6.97
2022-12-17T20:44:26.857Z,4.95
2022-12-17T20:46:54.813Z,6.57
2022-12-17T20:49:22.688Z,5.57
2022-12-17T20:51:50.531Z,7.47
2022-12-17T20:54:18.758Z,7.00
2022-12-17T20:56:46.634Z,6.05
2022-12-17T20:59:17.296Z,7.25
2022-12-17T21:01:52.800Z,5.25
2022-12-17T21:04:22.452Z,5.40
2022-12-17T21:06:50.474Z,5.60
2022-12-17T21:09:20.221Z,5.65
2022-12-17T21:11:48.219Z,6.20
2022-12-17T21:14:18.149Z,6.97
2022-12-17T21:16:47.816Z,5.55
2022-12-17T21:19:18.085Z,6.22
2022-12-17T21:21:46.155Z,6.00
2022-12-17T21:24:14.083Z,5.28
2022-12-17T21:26:43.647Z,5.28
2022-12-17T21:29:11.966Z,4.55
2022-12-17T21:31:41.590Z,5.90
2022-12-17T21:34:13.250Z,5.32
2022-12-17T21:36:41.329Z,6.47
2022-12-17T21:39:10.359Z,5.22
2022-12-17T21:41:44.470Z,4.97
2022-12-17T21:44:15.467Z,5.68
2022-12-17T21:46:43.988Z,5.03
2022-12-17T21:49:19.617Z,6.10
2022-12-17T21:51:47.762Z,6.43
2022-12-17T21:54:19.839Z,5.65
2022-12-17T21:56:48.845Z,5.90
2022-12-17T21:59:16.843Z,5.30
2022-12-17T22:01:44.849Z,5.43
2022-12-17T22:04:13.162Z,5.30
2022-12-17T22:06:50.921Z,5.65
2022-12-17T22:09:42.041Z,5.57
2022-12-17T22:12:37.222Z,5.60
2022-12-17T22:15:08.257Z,5.25
2022-12-17T22:17:36.541Z,5.28
2022-12-17T22:20:05.137Z,6.32
2022-12-17T22:22:34.359Z,4.75
2022-12-17T22:25:07.995Z,5.00
2022-12-17T22:27:38.156Z,6.75
2022-12-17T22:30:24.927Z,6.20
2022-12-17T22:33:02.436Z,6.20
2022-12-17T22:37:59.667Z,5.72
2022-12-17T22:41:40.556Z,7.30
2022-12-17T22:44:41.586Z,6.47
2022-12-17T22:44:42.775Z,5.57
2022-12-17T22:47:09.442Z,5.70
2022-12-17T22:49:37.922Z,5.97
2022-12-17T22:52:06.031Z,6.20
2022-12-17T22:54:35.289Z,5.55
2022-12-17T22:57:24.277Z,5.10
2022-12-17T22:59:51.751Z,7.03
2022-12-17T23:02:19.703Z,5.45
2022-12-17T23:04:47.807Z,5.32
2022-12-17T23:07:15.705Z,4.93
2022-12-17T23:09:44.899Z,5.03
2022-12-17T23:12:26.791Z,5.32
2022-12-17T23:14:54.626Z,5.07
2022-12-17T23:17:22.495Z,5.20
2022-12-17T23:19:50.335Z,5.35
2022-12-17T23:22:22.166Z,7.15
2022-12-17T23:24:51.612Z,5.60
2022-12-17T23:27:19.527Z,5.55
2022-12-17T23:29:47.378Z,5.75
2022-12-17T23:32:15.261Z,6.85
2022-12-17T23:34:43.622Z,7.57
2022-12-17T23:37:11.550Z,5.32
2022-12-17T23:39:39.477Z,5.65
2022-12-17T23:42:08.834Z,5.65
2022-12-17T23:44:36.801Z,6.88
2022-12-17T23:47:04.777Z,4.78
2022-12-17T23:49:32.680Z,5.60
2022-12-17T23:52:00.530Z,6.13
2022-12-17T23:54:28.700Z,5.50
2022-12-17T23:56:56.539Z,5.15
2022-12-17T23:59:25.741Z,3.97
